Sevierville, TN

12:48 PM EST on Novembre 18, 2017 (GMT -0500)
Murphy Rd | | Change Station
Active Advisory: Wind Advisory

Elev 958 ft 35.85 °N, 83.57 °W | Updated 21 seconds ago

Cobèrt
Cobèrt
65.6 °F
Feels Like 65.6 °F
N
7.0
vent Variadís vent from ESE

Auèi
High -- | Low -- °F
--% Chance of Precip.
Yesterday
High -- | Low -- °F
Precip. -- Dins
Pression 29.78 Dins
Visibilitat 10.0 miles
Nivols Subretot nivolós 3200 ft
Cobèrt 5000 ft
Punt de ròs 52 °F
Imor 63%
Rainfall 0.00 Dins
Snow Depth Not available.
7:13 AM 5:24 PM
New, 0% visible
METAR KTYS 181653Z 21023G31KT 10SM BKN032 OVC050 17/12 A2978 RMK AO2 PK WND 21031/1652 SLP082 T01720117
Pression 29.78 Dins
Visibilitat 10.0 miles
Nivols Subretot nivolós 3200 ft
Cobèrt 5000 ft
Punt de ròs 52 °F
Imor 63%
Rainfall 0.00 Dins
Snow Depth Not available.
7:13 AM 5:24 PM
New, 0% visible
METAR KTYS 181653Z 21023G31KT 10SM BKN032 OVC050 17/12 A2978 RMK AO2 PK WND 21031/1652 SLP082 T01720117

Get Your Daily Forecast Email!

Thanks for signing up!

Be on the lookout for a verification email in your inbox.

You'll start receiving severe weather alerts in your inbox..

×

10-Day Weather Forecast

Almanac

Astronomy

Nov. 18, 2017 Rise Set
Actual Time
Civil Twilight
Nautical Twilight
Astronomical Twilight
Luna
Length Of Visible Light
Length of Day
Tomorrow will be .
, % of the Moon is Illuminated

Today's Extremes

State Highs State Lows

Community

WunderPhotos

Category 6

Welcome to Category 6. This is the collective home for Weather Underground's featured writeups by Dr. Jeff Masters (right), Bob Henson (left), Chris Burt, and other regular contributors.

Nearby

Air Quality

  Air Quality AQ Index Pollutant
Not available.

Snow Depth

Station Depth Elevation

Earthquake Activity

Vila Distance Mag. Time & Date
Minimum magnitude displayed is 2.5.

Coastal Water Temperatures

Luòc Temperatura

Stations

Nearby Weather Stations

Station Location Temp Vent freg Punt de ròs Imor vent Precip. Elev Mes al jorn Type
                   

Watches & Warnings

Wind Advisory
Issued: 9:31 AM CST Nov. 18, 2017 – National Weather Service

... Wind Advisory remains in effect until 4 am EST /3 am CST/
Sunday...

* event... southwest winds this afternoon of 15 to 25 mph with
gusts up to 40 mph. Winds will shift to the northwest by
midnight, and gradually diminsh by sunrise.

* Timing... this afternoon through tonight.

* Impacts... strong winds may bring down weaker trees and large
tree limbs. Unsecured outdoor items may be blown around.
Travel may difficult for higher profile vehicles on area
interstates.

Precautionary/preparedness actions...

A Wind Advisory means that winds of 26 to 39 mph and/or gusts of
40 to 57 mph are expected or occurring. Winds this strong can
make driving difficult... especially for high profile vehicles.
Use extra caution.